Time;durP1;ratioP1;P1;durP2;ratioP2;P2;SDS_P1;SDS_P2;PMS_P1;PMS_P2;Temp;Humidity;BMP_temperature;BMP_pressure;BME280_temperature;BME280_humidity;BME280_pressure;Samples;Min_cycle;Max_cycle;Signal;HPM_P1;HPM_P2
2023/09/05 00:01:37;;;;;;;4.95;2.10;;;21.70;48.40;;;;;;4984128;28;20055;-50
2023/09/05 00:04:04;;;;;;;4.55;2.00;;;21.70;48.30;;;;;;4983863;28;20537;-53
2023/09/05 00:06:32;;;;;;;4.78;1.98;;;21.70;48.30;;;;;;4984156;28;20384;-56
2023/09/05 00:08:59;;;;;;;2.78;1.70;;;21.70;48.40;;;;;;4984825;28;20050;-56
2023/09/05 00:11:26;;;;;;;3.28;1.70;;;21.70;48.40;;;;;;4986045;28;20050;-55
2023/09/05 00:13:54;;;;;;;2.90;1.65;;;21.70;48.30;;;;;;4984227;28;20061;-55
2023/09/05 00:16:22;;;;;;;4.50;1.75;;;21.70;48.30;;;;;;4984473;28;20054;-55
2023/09/05 00:18:49;;;;;;;3.63;1.63;;;21.60;48.30;;;;;;4984155;28;20051;-56
2023/09/05 00:21:18;;;;;;;7.72;1.83;;;21.70;48.40;;;;;;4982929;28;20058;-56
2023/09/05 00:23:46;;;;;;;2.42;1.70;;;21.70;48.30;;;;;;4984210;28;20058;-56
2023/09/05 00:26:14;;;;;;;5.45;1.65;;;21.70;48.40;;;;;;4985775;28;20057;-55
2023/09/05 00:28:42;;;;;;;2.53;1.73;;;21.70;48.40;;;;;;4984641;28;20494;-52
2023/09/05 00:31:14;;;;;;;4.20;1.63;;;21.70;48.50;;;;;;4984799;28;20065;-56
2023/09/05 00:33:41;;;;;;;2.60;1.63;;;21.70;48.50;;;;;;4984128;28;20054;-57
2023/09/05 00:36:08;;;;;;;6.03;1.60;;;21.70;48.50;;;;;;4982644;28;20077;-55
2023/09/05 00:38:36;;;;;;;3.65;1.55;;;21.70;48.50;;;;;;4984063;28;20071;-56
2023/09/05 00:41:04;;;;;;;2.20;1.70;;;21.70;48.60;;;;;;4984860;28;20050;-53
2023/09/05 00:43:32;;;;;;;2.38;1.63;;;21.70;48.50;;;;;;4984779;28;20513;-56
2023/09/05 00:45:59;;;;;;;4.43;2.00;;;21.70;48.50;;;;;;4984365;28;20061;-55
2023/09/05 00:48:28;;;;;;;2.88;1.80;;;21.70;48.50;;;;;;4984091;28;20061;-56
2023/09/05 00:50:57;;;;;;;2.65;1.80;;;21.70;48.60;;;;;;4982583;28;20058;-57
2023/09/05 00:56:46;;;;;;;2.92;1.38;;;21.70;48.50;;;;;;4984617;28;20045;-52
2023/09/05 00:59:14;;;;;;;2.58;1.73;;;21.70;48.40;;;;;;4984515;28;20061;-55
2023/09/05 01:01:41;;;;;;;2.20;1.60;;;21.70;48.50;;;;;;4983280;28;20050;-58
2023/09/05 01:04:10;;;;;;;3.78;1.52;;;21.70;48.50;;;;;;4983102;28;20502;-59
2023/09/05 01:06:46;;;;;;;3.28;1.80;;;21.70;48.50;;;;;;4982297;28;20057;-53
2023/09/05 01:09:30;;;;;;;2.42;1.67;;;21.70;48.50;;;;;;4983591;28;20055;-56
2023/09/05 01:11:58;;;;;;;7.35;1.80;;;21.70;48.50;;;;;;4983384;28;20084;-52
2023/09/05 01:14:25;;;;;;;6.53;2.10;;;21.70;48.60;;;;;;4984522;28;20058;-56
2023/09/05 01:16:53;;;;;;;5.07;2.28;;;21.70;48.60;;;;;;4983438;28;20062;-56
2023/09/05 01:19:25;;;;;;;2.85;1.42;;;21.70;48.50;;;;;;4983657;28;20430;-52
2023/09/05 01:22:01;;;;;;;2.30;1.73;;;21.70;48.50;;;;;;4982603;28;20061;-55
2023/09/05 01:24:30;;;;;;;2.85;1.70;;;21.70;48.60;;;;;;4984204;28;20054;-55
2023/09/05 01:26:58;;;;;;;5.28;1.70;;;21.70;48.60;;;;;;4983401;28;20062;-56
2023/09/05 01:29:29;;;;;;;4.47;1.92;;;21.70;48.50;;;;;;4983438;28;20065;-55
2023/09/05 01:31:59;;;;;;;2.85;1.52;;;21.70;48.40;;;;;;4983170;28;20054;-51
2023/09/05 01:34:26;;;;;;;2.85;1.73;;;21.70;48.40;;;;;;4983005;28;20088;-53
2023/09/05 01:36:53;;;;;;;6.38;1.52;;;21.70;48.40;;;;;;4982634;28;20058;-56
2023/09/05 01:39:20;;;;;;;1.75;1.33;;;21.60;48.40;;;;;;4984034;28;20054;-56
2023/09/05 01:41:49;;;;;;;2.78;1.38;;;21.60;48.30;;;;;;4983855;28;20058;-56
2023/09/05 01:44:16;;;;;;;4.40;1.65;;;21.60;48.40;;;;;;4983042;28;20420;-56
2023/09/05 01:46:44;;;;;;;2.20;1.67;;;21.60;48.40;;;;;;4981342;28;20054;-55
2023/09/05 01:49:11;;;;;;;2.83;1.55;;;21.60;48.30;;;;;;4982945;28;20122;-55
2023/09/05 01:51:38;;;;;;;3.08;1.70;;;21.60;48.30;;;;;;4981766;28;20054;-42
2023/09/05 01:54:06;;;;;;;3.20;1.50;;;21.60;48.20;;;;;;4982777;28;20058;-45
2023/09/05 01:56:33;;;;;;;4.20;1.77;;;21.60;48.20;;;;;;4984450;28;20061;-41
2023/09/05 01:59:02;;;;;;;1.92;1.20;;;21.60;48.20;;;;;;4982954;28;20058;-46
2023/09/05 02:01:29;;;;;;;5.00;1.60;;;21.60;48.30;;;;;;4982634;28;20065;-45
2023/09/05 02:03:56;;;;;;;3.53;1.85;;;21.60;48.20;;;;;;4982029;28;20061;-48
2023/09/05 02:06:23;;;;;;;3.92;1.50;;;21.60;48.20;;;;;;4981495;28;20055;-43
2023/09/05 02:08:51;;;;;;;2.50;2.00;;;21.60;48.20;;;;;;4983798;28;20051;-47
2023/09/05 02:11:18;;;;;;;2.50;1.80;;;21.60;48.10;;;;;;4983198;28;20050;-42
2023/09/05 02:13:45;;;;;;;5.45;1.95;;;21.60;48.00;;;;;;4982250;28;20505;-46
2023/09/05 02:16:18;;;;;;;2.50;1.77;;;21.60;48.00;;;;;;4982412;28;20061;-43
2023/09/05 02:18:47;;;;;;;3.40;1.73;;;21.60;48.00;;;;;;4983163;28;20050;-48
2023/09/05 02:21:14;;;;;;;2.65;1.70;;;21.60;47.90;;;;;;4980954;28;20069;-42
2023/09/05 02:23:42;;;;;;;2.80;1.85;;;21.60;47.90;;;;;;4983520;28;20055;-44
2023/09/05 02:26:10;;;;;;;6.63;1.40;;;21.60;47.90;;;;;;4982968;28;20055;-43
2023/09/05 02:28:37;;;;;;;3.03;1.80;;;21.60;47.80;;;;;;4982378;28;20057;-43
2023/09/05 02:31:06;;;;;;;3.97;1.83;;;21.60;47.80;;;;;;4982109;28;20062;-47
2023/09/05 02:33:36;;;;;;;3.53;1.63;;;21.60;47.80;;;;;;4982834;28;20046;-44
2023/09/05 02:36:08;;;;;;;2.45;1.58;;;21.60;47.80;;;;;;4982361;28;20061;-51
2023/09/05 02:38:37;;;;;;;3.88;1.80;;;21.60;47.90;;;;;;4982722;28;21322;-45
2023/09/05 02:41:04;;;;;;;2.90;1.73;;;21.60;47.80;;;;;;4981945;28;20046;-51
2023/09/05 02:43:31;;;;;;;4.65;1.73;;;21.60;47.80;;;;;;4982215;28;20058;-47
2023/09/05 02:45:58;;;;;;;3.30;1.73;;;21.60;47.70;;;;;;4982360;28;20420;-45
2023/09/05 02:48:26;;;;;;;2.58;1.67;;;21.60;47.70;;;;;;4982042;28;20058;-45
2023/09/05 02:51:05;;;;;;;2.95;1.75;;;21.60;47.80;;;;;;4982008;28;20058;-43
2023/09/05 02:53:33;;;;;;;3.25;1.52;;;21.60;47.80;;;;;;4982523;28;20050;-46
2023/09/05 02:56:00;;;;;;;5.07;1.60;;;21.60;47.70;;;;;;4979312;28;20058;-45
2023/09/05 02:58:28;;;;;;;2.22;1.58;;;21.60;47.70;;;;;;4981819;28;20517;-45
2023/09/05 03:00:59;;;;;;;2.65;1.50;;;21.70;47.80;;;;;;4989264;28;20054;-54
2023/09/05 03:03:27;;;;;;;4.50;1.80;;;21.60;47.70;;;;;;5001613;28;20064;-54
2023/09/05 03:05:54;;;;;;;3.03;1.90;;;21.60;47.80;;;;;;5000877;28;20049;-52
2023/09/05 03:08:23;;;;;;;2.05;1.58;;;21.60;47.70;;;;;;5000641;28;20426;-52
2023/09/05 03:10:52;;;;;;;2.20;1.45;;;21.70;47.90;;;;;;5000359;28;20421;-47
2023/09/05 03:13:20;;;;;;;4.55;1.52;;;21.60;47.70;;;;;;5001862;28;20046;-53
2023/09/05 03:15:51;;;;;;;5.50;1.90;;;21.70;47.80;;;;;;5001642;28;20054;-54
2023/09/05 03:18:18;;;;;;;1.67;1.30;;;21.60;47.70;;;;;;5001000;28;20060;-53
2023/09/05 03:20:46;;;;;;;2.92;1.90;;;21.60;47.70;;;;;;5001015;28;20414;-54
2023/09/05 03:23:13;;;;;;;2.33;1.55;;;21.60;47.80;;;;;;5000990;28;20054;-54
2023/09/05 03:25:42;;;;;;;4.40;1.90;;;21.60;47.80;;;;;;5001004;28;20045;-54
2023/09/05 03:28:11;;;;;;;5.00;1.98;;;21.60;47.80;;;;;;5000743;28;20057;-55
2023/09/05 03:30:38;;;;;;;2.75;1.52;;;21.60;47.80;;;;;;5000431;28;20081;-52
2023/09/05 03:33:06;;;;;;;3.08;1.63;;;21.60;47.90;;;;;;5002480;28;20058;-54
2023/09/05 03:35:33;;;;;;;4.28;1.58;;;21.60;48.00;;;;;;5000327;28;20057;-52
2023/09/05 03:38:01;;;;;;;3.50;1.90;;;21.60;48.00;;;;;;5001497;28;20068;-53
2023/09/05 03:40:29;;;;;;;2.50;1.50;;;21.60;47.90;;;;;;5001106;28;20074;-53
2023/09/05 03:42:57;;;;;;;3.85;1.85;;;21.60;47.80;;;;;;5001066;28;20504;-54
2023/09/05 03:45:27;;;;;;;3.63;1.63;;;21.60;47.90;;;;;;4999761;28;20054;-55
2023/09/05 03:47:54;;;;;;;3.72;2.00;;;21.60;48.00;;;;;;5001582;28;20086;-55
2023/09/05 03:50:21;;;;;;;3.50;1.90;;;21.50;47.90;;;;;;4999921;28;20058;-56
2023/09/05 03:52:49;;;;;;;4.55;1.65;;;21.60;48.00;;;;;;5000592;28;20069;-55
2023/09/05 03:55:16;;;;;;;3.13;1.60;;;21.60;48.00;;;;;;5001414;28;20061;-55
2023/09/05 03:57:44;;;;;;;3.75;1.75;;;21.50;47.90;;;;;;5001167;28;20054;-57
2023/09/05 04:00:13;;;;;;;6.38;2.08;;;21.50;47.80;;;;;;5002034;28;20058;-57
2023/09/05 04:02:40;;;;;;;3.47;2.22;;;21.50;47.80;;;;;;5000651;28;20434;-50
2023/09/05 04:05:08;;;;;;;3.95;1.83;;;21.50;47.80;;;;;;4999468;28;20418;-56
2023/09/05 04:07:36;;;;;;;4.53;1.55;;;21.50;47.90;;;;;;5000812;28;20058;-56
2023/09/05 04:10:03;;;;;;;3.38;1.55;;;21.50;47.90;;;;;;5001989;28;20062;-56
2023/09/05 04:12:30;;;;;;;3.47;1.70;;;21.50;47.90;;;;;;5005168;28;20053;-51
2023/09/05 04:14:58;;;;;;;2.80;1.77;;;21.50;47.90;;;;;;5005123;28;20061;-50
2023/09/05 04:17:26;;;;;;;2.47;1.80;;;21.40;47.90;;;;;;5002689;28;20057;-50
2023/09/05 04:19:54;;;;;;;5.00;2.00;;;21.40;47.80;;;;;;5002252;28;20054;-44
2023/09/05 04:22:24;;;;;;;4.28;1.90;;;21.50;47.90;;;;;;5003467;28;20062;-45
2023/09/05 04:24:53;;;;;;;2.78;1.60;;;21.40;47.90;;;;;;5003019;28;20061;-43
2023/09/05 04:27:21;;;;;;;4.03;1.63;;;21.40;47.90;;;;;;5004850;28;20054;-44
2023/09/05 04:29:51;;;;;;;2.45;1.60;;;21.40;48.00;;;;;;5004721;28;20058;-45
2023/09/05 04:32:19;;;;;;;4.38;1.92;;;21.40;48.10;;;;;;5003569;28;20224;-44
2023/09/05 04:34:48;;;;;;;2.53;1.63;;;21.40;48.10;;;;;;5002836;28;20061;-44
2023/09/05 04:37:17;;;;;;;2.30;1.67;;;21.40;48.20;;;;;;5003369;28;20494;-43
2023/09/05 04:39:45;;;;;;;3.00;1.60;;;21.40;48.20;;;;;;5003902;28;20062;-48
2023/09/05 04:42:12;;;;;;;2.65;1.90;;;21.40;48.20;;;;;;5004702;28;20050;-43
2023/09/05 04:44:39;;;;;;;3.97;1.70;;;21.30;48.20;;;;;;5003668;28;20117;-45
2023/09/05 04:47:22;;;;;;;2.42;1.48;;;21.30;48.20;;;;;;5004270;28;20422;-43
2023/09/05 04:49:52;;;;;;;2.55;1.73;;;21.30;48.40;;;;;;5002763;28;20053;-44
2023/09/05 04:52:21;;;;;;;3.22;1.90;;;21.30;48.30;;;;;;5004166;28;21041;-43
2023/09/05 04:54:48;;;;;;;4.43;1.92;;;21.30;48.40;;;;;;5003080;28;20058;-50
2023/09/05 04:57:17;;;;;;;3.65;1.83;;;21.30;48.90;;;;;;5004284;28;20053;-44
2023/09/05 04:59:45;;;;;;;2.33;1.67;;;21.30;48.40;;;;;;5003340;28;20062;-43
2023/09/05 05:02:12;;;;;;;12.07;1.85;;;21.30;48.40;;;;;;5003858;28;20062;-42
2023/09/05 05:04:40;;;;;;;4.30;2.00;;;21.30;48.40;;;;;;5001701;28;20422;-46
2023/09/05 05:07:09;;;;;;;2.75;1.70;;;21.30;48.40;;;;;;5003918;28;20079;-43
2023/09/05 05:09:36;;;;;;;4.07;1.98;;;21.30;49.00;;;;;;5003818;28;20066;-45
2023/09/05 05:12:06;;;;;;;3.28;1.73;;;21.20;48.50;;;;;;5004067;28;20060;-43
2023/09/05 05:14:32;;;;;;;2.35;1.63;;;21.20;48.50;;;;;;5003125;28;20050;-44
2023/09/05 05:16:59;;;;;;;3.50;2.13;;;21.20;48.60;;;;;;5003406;28;20061;-42
2023/09/05 05:19:26;;;;;;;5.25;2.13;;;21.20;48.60;;;;;;5003359;28;20050;-46
2023/09/05 05:21:54;;;;;;;3.78;1.52;;;21.20;48.70;;;;;;5002753;28;20483;-43
2023/09/05 05:24:23;;;;;;;10.57;2.13;;;21.20;48.70;;;;;;5004123;28;20058;-42
2023/09/05 05:26:51;;;;;;;3.78;1.90;;;21.20;48.70;;;;;;5002892;28;20053;-44
2023/09/05 05:29:18;;;;;;;6.00;1.65;;;21.20;48.70;;;;;;5002732;28;20046;-43
2023/09/05 05:31:47;;;;;;;3.83;1.90;;;21.20;48.80;;;;;;5003199;28;20052;-44
2023/09/05 05:34:14;;;;;;;2.95;2.03;;;21.20;48.90;;;;;;5003328;28;20516;-45
2023/09/05 05:36:42;;;;;;;4.80;2.28;;;21.20;48.90;;;;;;5001844;28;20409;-49
2023/09/05 05:39:09;;;;;;;3.00;1.80;;;21.20;49.00;;;;;;5004151;28;20501;-46
2023/09/05 05:41:38;;;;;;;4.47;1.90;;;21.20;49.00;;;;;;5002316;28;20054;-46
2023/09/05 05:44:06;;;;;;;2.58;1.77;;;21.20;49.10;;;;;;5002544;28;20061;-54
2023/09/05 05:46:33;;;;;;;3.67;2.13;;;21.20;49.10;;;;;;5002733;28;20054;-43
2023/09/05 05:49:02;;;;;;;4.05;1.83;;;21.20;49.20;;;;;;5003237;28;20049;-54
2023/09/05 05:51:30;;;;;;;5.32;2.28;;;21.20;49.20;;;;;;5001808;28;20481;-44
2023/09/05 05:53:57;;;;;;;6.63;1.70;;;21.20;49.20;;;;;;5003126;28;20053;-43
2023/09/05 05:56:25;;;;;;;3.55;2.05;;;21.20;49.20;;;;;;5001798;28;20844;-43
2023/09/05 05:58:53;;;;;;;3.05;1.90;;;21.20;49.40;;;;;;5002736;28;20053;-51
2023/09/05 06:01:21;;;;;;;4.38;2.00;;;21.20;49.50;;;;;;5001518;28;20054;-43
2023/09/05 06:03:48;;;;;;;3.20;2.00;;;21.20;49.40;;;;;;5002457;28;20065;-46
2023/09/05 06:06:15;;;;;;;7.22;2.10;;;21.20;49.40;;;;;;5001791;28;20060;-44
2023/09/05 06:08:43;;;;;;;3.17;1.90;;;21.20;49.50;;;;;;5002563;28;20061;-46
2023/09/05 06:11:10;;;;;;;2.65;1.90;;;21.20;49.50;;;;;;5002364;28;20537;-45
2023/09/05 06:13:37;;;;;;;2.25;1.70;;;21.20;49.40;;;;;;5003064;28;20049;-43
2023/09/05 06:16:06;;;;;;;5.18;2.05;;;21.30;49.60;;;;;;5001753;28;20498;-52
2023/09/05 06:18:33;;;;;;;3.75;1.98;;;21.30;49.50;;;;;;5002719;28;20438;-43
2023/09/05 06:21:00;;;;;;;2.67;1.98;;;21.30;49.50;;;;;;5001399;28;20056;-43
2023/09/05 06:23:29;;;;;;;5.00;2.13;;;21.30;49.60;;;;;;5002198;28;20054;-43
2023/09/05 06:25:56;;;;;;;3.03;1.80;;;21.30;49.60;;;;;;5002083;28;20490;-46
2023/09/05 06:28:24;;;;;;;4.22;2.22;;;21.40;49.70;;;;;;5002039;28;20049;-54
2023/09/05 06:30:51;;;;;;;3.72;1.90;;;21.40;49.80;;;;;;5001981;28;20054;-44
2023/09/05 06:33:20;;;;;;;3.03;2.00;;;21.40;49.80;;;;;;5002602;28;20083;-44
2023/09/05 06:35:47;;;;;;;3.15;1.98;;;21.50;49.90;;;;;;5000203;28;20062;-42
2023/09/05 06:38:15;;;;;;;3.60;2.10;;;21.50;49.90;;;;;;5002209;28;20084;-43
2023/09/05 06:40:42;;;;;;;3.88;1.73;;;21.50;49.80;;;;;;5001554;28;20052;-54
2023/09/05 06:43:10;;;;;;;2.60;1.77;;;21.50;49.80;;;;;;5001335;28;20469;-52
2023/09/05 06:45:37;;;;;;;4.80;1.75;;;21.60;49.90;;;;;;5002259;28;20061;-47
2023/09/05 06:48:05;;;;;;;2.75;2.03;;;21.60;50.00;;;;;;5002158;28;20060;-44
2023/09/05 06:50:33;;;;;;;4.38;2.13;;;21.60;50.10;;;;;;5000542;28;20058;-42
2023/09/05 06:53:01;;;;;;;4.95;2.20;;;21.60;50.10;;;;;;5001606;28;20057;-47
2023/09/05 06:55:34;;;;;;;3.33;1.83;;;21.60;50.10;;;;;;5001733;28;20049;-43
2023/09/05 06:58:02;;;;;;;2.63;1.92;;;21.70;50.30;;;;;;5001478;28;20065;-50
2023/09/05 07:00:29;;;;;;;6.35;1.95;;;21.70;50.20;;;;;;5002379;28;20053;-44
2023/09/05 07:02:56;;;;;;;3.72;2.10;;;21.70;50.30;;;;;;5001572;28;20054;-49
2023/09/05 07:05:24;;;;;;;2.90;1.98;;;21.80;50.30;;;;;;5000373;28;20380;-43
2023/09/05 07:07:52;;;;;;;2.95;1.88;;;21.80;50.30;;;;;;5001189;28;20406;-44
2023/09/05 07:10:20;;;;;;;2.45;1.77;;;21.80;50.30;;;;;;5001230;28;20056;-49
2023/09/05 07:12:47;;;;;;;6.03;2.13;;;21.90;50.40;;;;;;5002646;28;20064;-48
2023/09/05 07:15:14;;;;;;;2.65;1.80;;;21.90;50.40;;;;;;5002143;28;20410;-48
2023/09/05 07:17:41;;;;;;;4.65;2.00;;;21.90;50.30;;;;;;5001186;28;20417;-46
2023/09/05 07:20:10;;;;;;;4.45;2.10;;;22.00;50.50;;;;;;5000526;28;20060;-43
2023/09/05 07:22:38;;;;;;;5.00;1.85;;;22.00;50.50;;;;;;5002012;28;20050;-45
2023/09/05 07:25:07;;;;;;;3.08;2.00;;;22.10;50.50;;;;;;5001350;28;20053;-43
2023/09/05 07:27:35;;;;;;;3.08;2.03;;;22.10;50.50;;;;;;5001454;28;20082;-42
2023/09/05 07:30:02;;;;;;;5.00;2.20;;;22.20;50.50;;;;;;5001313;28;20056;-43
2023/09/05 07:32:29;;;;;;;5.90;2.20;;;22.20;50.50;;;;;;5001196;28;20498;-44
2023/09/05 07:34:55;;;;;;;4.25;2.28;;;22.20;50.50;;;;;;4999931;28;20909;-45
2023/09/05 07:37:23;;;;;;;3.88;2.10;;;22.30;50.60;;;;;;5001343;28;20057;-44
2023/09/05 07:39:52;;;;;;;3.17;2.00;;;22.30;50.40;;;;;;5002274;28;20050;-44
2023/09/05 07:42:21;;;;;;;4.68;1.95;;;22.40;50.50;;;;;;5001852;28;20057;-48
2023/09/05 07:44:48;;;;;;;4.05;2.20;;;22.40;50.60;;;;;;5001920;28;20062;-48
2023/09/05 07:47:15;;;;;;;2.97;2.03;;;22.40;50.60;;;;;;5005468;28;20058;-45
2023/09/05 07:49:43;;;;;;;3.30;2.40;;;22.50;50.70;;;;;;5004063;28;20061;-50
2023/09/05 07:52:10;;;;;;;3.30;2.05;;;22.50;50.60;;;;;;5005507;28;20058;-52
2023/09/05 07:54:38;;;;;;;2.40;1.85;;;22.60;50.50;;;;;;5005427;28;20053;-50
2023/09/05 07:57:05;;;;;;;2.78;1.70;;;22.60;50.60;;;;;;5005176;28;20434;-50
2023/09/05 07:59:34;;;;;;;5.07;2.13;;;22.60;50.50;;;;;;5004658;28;20065;-45
2023/09/05 08:02:02;;;;;;;3.53;2.03;;;22.70;50.50;;;;;;5004532;28;20064;-42
2023/09/05 08:04:29;;;;;;;4.25;1.80;;;22.70;50.40;;;;;;5003939;28;20058;-43
2023/09/05 08:06:59;;;;;;;2.80;1.88;;;22.70;50.30;;;;;;5004203;28;20141;-48
2023/09/05 08:09:44;;;;;;;2.97;1.75;;;22.80;50.40;;;;;;5005326;28;20433;-42
2023/09/05 08:12:11;;;;;;;4.03;2.28;;;22.80;50.40;;;;;;5004431;28;20062;-43
2023/09/05 08:14:40;;;;;;;4.00;2.30;;;22.80;50.30;;;;;;5004128;28;20053;-45
2023/09/05 08:17:07;;;;;;;7.72;2.35;;;22.90;50.60;;;;;;5003882;28;20070;-45
2023/09/05 08:19:34;;;;;;;2.63;1.75;;;22.90;50.00;;;;;;5003787;28;20050;-47
2023/09/05 08:22:02;;;;;;;7.40;2.13;;;22.90;50.10;;;;;;5004383;28;20064;-43
2023/09/05 08:24:29;;;;;;;3.65;1.90;;;23.00;50.30;;;;;;5005033;28;20054;-43
2023/09/05 08:26:56;;;;;;;2.70;1.85;;;23.00;50.20;;;;;;5004198;28;20054;-46
2023/09/05 08:29:24;;;;;;;2.47;1.88;;;23.00;50.20;;;;;;5004075;28;20057;-46
2023/09/05 08:31:54;;;;;;;3.53;2.10;;;23.10;50.10;;;;;;5004196;28;20068;-42
2023/09/05 08:34:21;;;;;;;3.22;1.98;;;23.10;50.00;;;;;;5003008;28;20134;-45
2023/09/05 08:36:48;;;;;;;3.08;2.03;;;23.10;50.00;;;;;;5004300;28;20085;-43
2023/09/05 08:39:16;;;;;;;3.25;2.08;;;23.20;49.90;;;;;;5003935;28;20054;-45
2023/09/05 08:41:43;;;;;;;2.63;1.73;;;23.20;50.00;;;;;;5004237;28;20058;-42
2023/09/05 08:44:11;;;;;;;2.50;1.67;;;23.20;49.90;;;;;;5004123;28;20050;-43
2023/09/05 08:46:40;;;;;;;2.40;1.85;;;23.30;49.80;;;;;;5002773;28;20050;-45
2023/09/05 08:49:09;;;;;;;2.90;1.92;;;23.30;49.80;;;;;;5003826;28;20064;-53
2023/09/05 08:51:40;;;;;;;4.45;1.88;;;23.30;49.70;;;;;;5001896;28;20060;-51
2023/09/05 08:54:15;;;;;;;4.60;1.92;;;23.40;49.50;;;;;;5003484;28;20050;-46
2023/09/05 08:56:43;;;;;;;2.63;1.90;;;23.40;49.40;;;;;;5002934;28;20057;-45
2023/09/05 08:59:10;;;;;;;6.65;2.17;;;23.40;49.50;;;;;;5002917;28;20054;-44
2023/09/05 09:01:38;;;;;;;2.92;2.00;;;23.50;49.60;;;;;;5003091;28;20046;-47
2023/09/05 09:04:05;;;;;;;3.70;2.28;;;23.50;49.60;;;;;;5003858;28;20530;-55
2023/09/05 09:06:35;;;;;;;3.50;2.03;;;23.50;49.40;;;;;;5002791;28;20062;-48
2023/09/05 09:09:03;;;;;;;2.67;1.60;;;23.60;49.40;;;;;;5003297;28;20073;-43
2023/09/05 09:11:30;;;;;;;4.32;1.73;;;23.60;49.20;;;;;;5003395;28;20050;-52
2023/09/05 09:14:01;;;;;;;2.65;1.80;;;23.60;49.40;;;;;;5003226;28;20053;-50
2023/09/05 09:16:28;;;;;;;4.53;1.65;;;23.70;49.50;;;;;;5003281;28;20057;-44
2023/09/05 09:19:03;;;;;;;3.28;1.92;;;23.70;49.30;;;;;;5004120;28;20058;-45
2023/09/05 09:21:35;;;;;;;4.93;1.90;;;23.80;49.10;;;;;;5002527;28;20065;-45
2023/09/05 09:24:08;;;;;;;2.30;1.70;;;23.80;49.00;;;;;;5003634;28;20057;-42
2023/09/05 09:26:38;;;;;;;2.70;2.00;;;23.80;48.90;;;;;;5003075;28;20049;-50
2023/09/05 09:29:08;;;;;;;2.88;2.00;;;23.90;49.30;;;;;;5003030;28;20046;-54
2023/09/05 09:31:36;;;;;;;4.55;1.90;;;23.90;48.60;;;;;;5003083;28;20054;-48
2023/09/05 09:34:03;;;;;;;2.67;1.67;;;24.00;48.70;;;;;;5004122;28;20463;-43
2023/09/05 09:36:35;;;;;;;4.53;2.00;;;24.00;48.70;;;;;;5001678;28;20411;-45
2023/09/05 09:39:08;;;;;;;4.63;1.92;;;24.00;48.50;;;;;;5002911;28;20201;-46
2023/09/05 09:41:42;;;;;;;3.97;1.63;;;24.10;48.60;;;;;;5003559;28;20058;-46
2023/09/05 09:44:09;;;;;;;3.17;1.58;;;24.10;48.40;;;;;;5002353;28;20069;-46
2023/09/05 09:46:36;;;;;;;3.08;1.75;;;24.10;48.40;;;;;;5002427;28;20054;-44
2023/09/05 09:49:08;;;;;;;3.05;1.65;;;24.20;48.30;;;;;;5003709;28;20058;-43
2023/09/05 09:51:37;;;;;;;3.78;1.60;;;24.20;48.40;;;;;;5001604;28;20058;-51
2023/09/05 09:54:08;;;;;;;4.80;1.85;;;24.20;48.30;;;;;;5002121;28;20057;-41
2023/09/05 09:56:35;;;;;;;2.42;1.50;;;24.30;48.40;;;;;;5003019;28;20461;-55
2023/09/05 09:59:03;;;;;;;2.20;1.70;;;24.30;48.20;;;;;;5002610;28;20061;-46
2023/09/05 10:01:31;;;;;;;3.20;1.90;;;24.30;48.60;;;;;;5001940;28;20060;-44
2023/09/05 10:03:59;;;;;;;5.85;2.20;;;24.40;48.40;;;;;;5003576;28;20066;-43
2023/09/05 10:06:28;;;;;;;2.22;1.60;;;24.40;48.50;;;;;;5000534;28;20046;-42
2023/09/05 10:08:58;;;;;;;4.07;1.85;;;24.40;48.40;;;;;;5002080;28;20060;-45
2023/09/05 10:11:26;;;;;;;2.72;1.60;;;24.50;48.30;;;;;;5002315;28;20062;-45
2023/09/05 10:13:55;;;;;;;2.38;1.70;;;24.50;48.30;;;;;;5002561;28;20057;-44
2023/09/05 10:16:23;;;;;;;4.03;1.63;;;24.60;48.30;;;;;;5001453;28;20061;-51
2023/09/05 10:18:53;;;;;;;3.05;1.70;;;24.60;48.00;;;;;;5003070;28;20056;-43
2023/09/05 10:21:25;;;;;;;2.15;1.45;;;24.70;47.90;;;;;;5000782;28;20486;-44
2023/09/05 10:23:53;;;;;;;1.98;1.70;;;24.70;47.70;;;;;;5002033;28;20503;-42
2023/09/05 10:26:23;;;;;;;5.28;1.85;;;24.70;47.80;;;;;;5002354;28;20522;-45
2023/09/05 10:28:56;;;;;;;1.88;1.30;;;24.80;47.90;;;;;;5001650;28;20101;-45
2023/09/05 10:31:25;;;;;;;4.37;1.70;;;24.80;47.50;;;;;;5002405;28;20057;-51
2023/09/05 10:33:53;;;;;;;3.58;1.70;;;24.90;47.40;;;;;;5002229;28;20470;-43
2023/09/05 10:36:39;;;;;;;2.38;1.50;;;24.90;47.50;;;;;;5001025;28;20490;-48
2023/09/05 10:39:22;;;;;;;2.80;1.70;;;24.90;47.60;;;;;;5001753;28;20057;-43
2023/09/05 10:41:51;;;;;;;4.07;1.55;;;25.00;47.60;;;;;;5001719;28;20513;-41
2023/09/05 10:44:18;;;;;;;2.47;1.30;;;25.00;47.90;;;;;;5002179;28;20065;-44
2023/09/05 10:46:52;;;;;;;2.40;1.70;;;25.10;47.40;;;;;;5001785;28;20628;-41
2023/09/05 10:49:19;;;;;;;2.38;1.98;;;25.10;47.30;;;;;;5002321;28;20065;-43
2023/09/05 10:52:17;;;;;;;2.53;1.80;;;25.10;47.40;;;;;;4999609;28;20502;-41
2023/09/05 10:54:44;;;;;;;5.88;1.38;;;25.20;47.30;;;;;;5001929;28;20092;-43
2023/09/05 10:57:38;;;;;;;2.60;1.48;;;25.20;47.00;;;;;;5001928;28;20517;-44
2023/09/05 11:00:15;;;;;;;2.13;1.33;;;25.30;46.70;;;;;;5001733;28;20413;-51
2023/09/05 11:02:42;;;;;;;1.52;1.25;;;25.30;46.80;;;;;;5000861;28;20046;-45
2023/09/05 11:05:12;;;;;;;2.65;1.60;;;25.40;46.90;;;;;;5000343;28;20049;-52
2023/09/05 11:07:43;;;;;;;5.13;1.50;;;25.40;47.30;;;;;;5000925;28;20054;-42
2023/09/05 11:10:12;;;;;;;2.03;1.50;;;25.50;47.50;;;;;;5002033;28;20382;-49
2023/09/05 11:12:41;;;;;;;3.42;1.70;;;25.50;47.50;;;;;;5001541;28;20072;-56
2023/09/05 11:15:09;;;;;;;1.90;1.33;;;25.60;47.20;;;;;;5000679;28;20058;-54
2023/09/05 11:17:37;;;;;;;3.90;1.15;;;25.60;47.00;;;;;;5001623;28;20521;-55
2023/09/05 11:20:07;;;;;;;1.67;1.30;;;25.60;46.80;;;;;;5005239;28;20058;-56
2023/09/05 11:22:34;;;;;;;2.78;1.30;;;25.70;46.90;;;;;;5008539;28;20417;-51
2023/09/05 11:25:07;;;;;;;2.40;1.30;;;25.70;46.50;;;;;;5007695;28;20053;-53
2023/09/05 11:27:34;;;;;;;4.57;1.40;;;25.80;46.30;;;;;;5008270;28;20064;-55
2023/09/05 11:30:06;;;;;;;3.10;1.40;;;25.80;46.60;;;;;;5007605;28;20053;-52
2023/09/05 11:32:35;;;;;;;3.55;1.27;;;25.80;46.70;;;;;;5008163;28;20076;-56
2023/09/05 11:35:04;;;;;;;3.03;1.65;;;25.90;47.20;;;;;;5007046;28;20053;-50
2023/09/05 11:37:31;;;;;;;1.83;1.40;;;26.00;46.60;;;;;;5008860;28;20049;-57
2023/09/05 11:40:10;;;;;;;1.85;1.30;;;26.00;46.30;;;;;;5008656;28;20065;-56
2023/09/05 11:42:37;;;;;;;2.45;1.60;;;26.00;46.60;;;;;;5007384;28;20053;-50
2023/09/05 11:45:17;;;;;;;3.90;1.30;;;26.10;47.00;;;;;;5007678;28;20060;-51
2023/09/05 11:47:44;;;;;;;3.33;1.63;;;26.10;46.90;;;;;;5005694;28;20066;-56
2023/09/05 11:50:14;;;;;;;3.45;1.52;;;26.20;47.10;;;;;;5006255;28;20045;-54
2023/09/05 11:52:43;;;;;;;1.80;1.30;;;26.20;46.70;;;;;;5007895;28;20061;-56
2023/09/05 11:55:10;;;;;;;1.80;1.38;;;26.30;46.50;;;;;;5008630;28;20057;-58
2023/09/05 11:57:40;;;;;;;1.73;1.23;;;26.30;46.40;;;;;;5007337;28;20482;-55
2023/09/05 12:00:17;;;;;;;2.13;1.30;;;26.30;46.50;;;;;;5006389;28;20486;-58
2023/09/05 12:02:45;;;;;;;6.90;1.38;;;26.40;46.50;;;;;;5007108;28;20426;-57
2023/09/05 12:05:14;;;;;;;1.92;1.13;;;26.50;46.50;;;;;;5005790;28;20053;-51
2023/09/05 12:07:41;;;;;;;1.83;1.27;;;26.50;46.60;;;;;;5008011;28;20053;-55
2023/09/05 12:10:10;;;;;;;4.03;1.30;;;26.50;46.60;;;;;;5008048;28;20053;-58
2023/09/05 12:12:37;;;;;;;2.20;1.17;;;26.50;46.00;;;;;;5007964;28;20056;-57
2023/09/05 12:15:05;;;;;;;2.90;1.30;;;26.60;45.60;;;;;;5006939;28;20058;-54
2023/09/05 12:17:34;;;;;;;2.30;1.20;;;26.60;45.30;;;;;;5007946;28;20401;-59
2023/09/05 12:20:09;;;;;;;2.17;1.08;;;26.70;45.20;;;;;;5006813;28;20459;-57
2023/09/05 12:22:36;;;;;;;3.45;1.60;;;26.70;45.20;;;;;;5008417;28;20544;-56
2023/09/05 12:25:17;;;;;;;2.35;1.08;;;26.70;45.00;;;;;;5007210;28;20521;-56
2023/09/05 12:27:45;;;;;;;3.70;1.05;;;26.70;44.60;;;;;;5007619;28;20060;-56
2023/09/05 12:30:30;;;;;;;1.23;1.10;;;26.80;44.90;;;;;;5005176;28;20069;-56
2023/09/05 12:33:00;;;;;;;3.08;1.20;;;26.80;45.10;;;;;;5003932;28;20050;-56
2023/09/05 12:35:29;;;;;;;1.77;1.02;;;26.80;44.60;;;;;;5002889;28;20050;-55
2023/09/05 12:37:57;;;;;;;1.98;1.25;;;26.80;44.40;;;;;;5004433;28;20053;-59
2023/09/05 12:40:25;;;;;;;5.40;1.60;;;26.80;44.20;;;;;;5005191;28;20053;-54
2023/09/05 12:42:52;;;;;;;2.30;1.35;;;26.90;44.00;;;;;;5004098;28;20498;-49
2023/09/05 12:45:20;;;;;;;2.70;1.17;;;26.90;44.10;;;;;;5003619;28;20054;-53
2023/09/05 12:47:51;;;;;;;5.55;1.30;;;26.90;44.10;;;;;;5004182;28;20061;-58
2023/09/05 12:50:25;;;;;;;2.55;1.23;;;26.90;44.20;;;;;;5001695;28;20436;-58
2023/09/05 12:52:52;;;;;;;4.18;1.02;;;26.90;43.70;;;;;;5004255;28;20062;-58
2023/09/05 12:55:20;;;;;;;1.77;1.17;;;26.90;43.30;;;;;;5004936;28;20489;-57
2023/09/05 12:57:47;;;;;;;1.52;1.20;;;26.90;43.20;;;;;;5004086;28;20489;-56
2023/09/05 13:00:15;;;;;;;2.13;1.50;;;26.90;42.80;;;;;;5003632;28;20050;-57